Time;durP1;ratioP1;P1;durP2;ratioP2;P2;SDS_P1;SDS_P2;PMS_P1;PMS_P2;Temp;Humidity;BMP_temperature;BMP_pressure;BME280_temperature;BME280_humidity;BME280_pressure;Samples;Min_cycle;Max_cycle;Signal;HPM_P1;HPM_P2
2023/11/23 00:02:00;;;;;;;26.63;25.02;;;;;;;;;;5021146;28;20032;-52
2023/11/23 00:04:25;;;;;;;24.75;23.33;;;;;;;;;;5024188;28;20503;-52
2023/11/23 00:06:51;;;;;;;25.05;23.65;;;;;;;;;;5023188;28;20037;-47
2023/11/23 00:09:16;;;;;;;26.20;24.70;;;;;;;;;;5021826;28;20484;-48
2023/11/23 00:11:42;;;;;;;25.95;24.30;;;;;;;;;;5023723;28;20276;-49
2023/11/23 00:14:07;;;;;;;24.95;23.55;;;;;;;;;;5023818;28;20047;-49
2023/11/23 00:16:32;;;;;;;25.20;23.38;;;;;;;;;;5022136;28;20038;-49
2023/11/23 00:18:57;;;;;;;25.27;23.85;;;;;;;;;;5022619;28;20475;-50
2023/11/23 00:21:23;;;;;;;25.25;23.85;;;;;;;;;;5004387;28;20030;-51
2023/11/23 00:23:48;;;;;;;25.77;24.38;;;;;;;;;;5019949;28;20479;-49
2023/11/23 00:26:13;;;;;;;23.98;22.67;;;;;;;;;;5020364;28;20029;-51
2023/11/23 00:28:39;;;;;;;23.80;22.50;;;;;;;;;;5025710;28;20498;-49
2023/11/23 00:31:04;;;;;;;25.38;23.90;;;;;;;;;;5020300;28;20072;-49
2023/11/23 00:33:30;;;;;;;23.48;22.17;;;;;;;;;;5021348;28;20099;-48
2023/11/23 00:35:55;;;;;;;23.60;22.20;;;;;;;;;;5021288;28;20049;-52
2023/11/23 00:38:21;;;;;;;23.10;21.80;;;;;;;;;;5021687;28;20444;-53
2023/11/23 00:40:46;;;;;;;22.25;20.95;;;;;;;;;;5020049;28;20111;-50
2023/11/23 00:43:11;;;;;;;24.33;22.92;;;;;;;;;;5022943;28;20033;-51
2023/11/23 00:45:37;;;;;;;24.95;23.52;;;;;;;;;;5024640;28;20609;-50
2023/11/23 00:48:03;;;;;;;23.48;22.17;;;;;;;;;;5021233;28;20029;-50
2023/11/23 00:50:28;;;;;;;25.85;24.10;;;;;;;;;;5024113;28;20033;-49
2023/11/23 00:52:54;;;;;;;23.23;21.92;;;;;;;;;;5021961;28;20478;-48
2023/11/23 00:55:20;;;;;;;24.00;22.42;;;;;;;;;;5022208;28;20064;-53
2023/11/23 00:57:46;;;;;;;21.95;20.75;;;;;;;;;;5023343;28;20048;-51
2023/11/23 01:00:16;;;;;;;22.00;20.80;;;;;;;;;;5022183;28;20029;-48
2023/11/23 01:02:42;;;;;;;22.08;20.85;;;;;;;;;;5025222;28;20029;-51
2023/11/23 01:05:07;;;;;;;22.35;21.00;;;;;;;;;;5022727;28;20112;-50
2023/11/23 01:07:34;;;;;;;24.25;22.75;;;;;;;;;;5025351;28;20033;-50
2023/11/23 01:09:59;;;;;;;23.83;22.33;;;;;;;;;;5020974;28;20371;-51
2023/11/23 01:12:24;;;;;;;24.75;23.20;;;;;;;;;;5019859;28;20030;-50
2023/11/23 01:14:50;;;;;;;23.10;21.70;;;;;;;;;;5018315;28;20036;-52
2023/11/23 01:17:15;;;;;;;23.00;21.38;;;;;;;;;;5021218;28;20033;-48
2023/11/23 01:19:40;;;;;;;23.27;21.98;;;;;;;;;;5020342;28;20127;-52
2023/11/23 01:22:06;;;;;;;22.50;21.20;;;;;;;;;;5019143;28;20505;-53
2023/11/23 01:24:32;;;;;;;22.08;20.77;;;;;;;;;;5018909;28;20034;-51
2023/11/23 01:26:57;;;;;;;22.77;21.38;;;;;;;;;;5020871;28;20100;-51
2023/11/23 01:29:23;;;;;;;23.20;21.80;;;;;;;;;;5021386;28;20108;-52
2023/11/23 01:31:48;;;;;;;22.83;21.52;;;;;;;;;;5022704;28;20148;-48
2023/11/23 01:34:13;;;;;;;22.27;21.00;;;;;;;;;;5021460;28;20493;-50
2023/11/23 01:36:39;;;;;;;22.15;20.90;;;;;;;;;;5020075;28;20029;-48
2023/11/23 01:39:04;;;;;;;24.95;23.45;;;;;;;;;;5019326;28;20251;-48
2023/11/23 01:41:30;;;;;;;22.05;20.75;;;;;;;;;;5021031;28;20760;-50
2023/11/23 01:43:55;;;;;;;22.90;21.50;;;;;;;;;;5021533;28;20037;-50
2023/11/23 01:46:21;;;;;;;21.77;20.50;;;;;;;;;;5016887;28;20341;-49
2023/11/23 01:48:47;;;;;;;22.25;20.92;;;;;;;;;;5020139;28;20795;-49
2023/11/23 01:51:13;;;;;;;21.70;20.50;;;;;;;;;;5017041;28;20026;-53
2023/11/23 01:53:40;;;;;;;22.63;21.33;;;;;;;;;;5017441;28;20376;-49
2023/11/23 01:56:08;;;;;;;22.63;21.42;;;;;;;;;;5019535;28;20303;-47
2023/11/23 01:58:33;;;;;;;24.55;23.15;;;;;;;;;;5020070;28;20029;-51
2023/11/23 02:00:59;;;;;;;23.83;22.40;;;;;;;;;;5016199;28;20545;-51
2023/11/23 02:03:24;;;;;;;22.67;21.27;;;;;;;;;;5019816;28;20032;-52
2023/11/23 02:05:49;;;;;;;23.02;21.73;;;;;;;;;;5020749;28;20427;-49
2023/11/23 02:08:15;;;;;;;22.95;21.65;;;;;;;;;;5018478;28;20034;-50
2023/11/23 02:10:40;;;;;;;22.67;21.45;;;;;;;;;;5021500;28;20025;-50
2023/11/23 02:13:06;;;;;;;22.35;21.15;;;;;;;;;;5020637;28;20034;-48
2023/11/23 02:15:31;;;;;;;23.85;22.45;;;;;;;;;;5017752;28;20104;-50
2023/11/23 02:18:05;;;;;;;21.02;19.83;;;;;;;;;;5018084;28;20699;-50
2023/11/23 02:20:31;;;;;;;23.35;21.85;;;;;;;;;;5018662;28;20090;-48
2023/11/23 02:22:59;;;;;;;23.67;22.38;;;;;;;;;;5019390;28;20570;-48
2023/11/23 02:25:25;;;;;;;23.75;22.45;;;;;;;;;;5019640;28;20100;-50
2023/11/23 02:27:52;;;;;;;23.92;22.63;;;;;;;;;;5020876;28;20041;-48
2023/11/23 02:30:17;;;;;;;24.65;23.25;;;;;;;;;;5017103;28;20368;-51
2023/11/23 02:32:42;;;;;;;23.73;22.38;;;;;;;;;;5018559;28;20026;-51
2023/11/23 02:35:08;;;;;;;24.13;22.83;;;;;;;;;;5020008;28;20038;-51
2023/11/23 02:37:33;;;;;;;24.98;23.55;;;;;;;;;;5016385;28;20033;-49
2023/11/23 02:39:59;;;;;;;24.90;23.40;;;;;;;;;;5020125;28;20190;-52
2023/11/23 02:42:24;;;;;;;25.77;23.40;;;;;;;;;;5020257;28;20060;-54
2023/11/23 02:44:50;;;;;;;24.85;23.45;;;;;;;;;;5020820;28;20701;-54
2023/11/23 02:47:15;;;;;;;25.27;23.60;;;;;;;;;;5018979;28;20120;-53
2023/11/23 02:49:40;;;;;;;23.80;22.48;;;;;;;;;;5017359;28;20045;-49
2023/11/23 02:52:06;;;;;;;24.33;23.02;;;;;;;;;;5020488;28;20057;-53
2023/11/23 02:54:31;;;;;;;25.23;23.83;;;;;;;;;;5020126;28;20025;-49
2023/11/23 02:56:56;;;;;;;25.45;24.15;;;;;;;;;;5019816;28;20123;-50
2023/11/23 02:59:22;;;;;;;26.73;25.08;;;;;;;;;;5017904;28;20064;-48
2023/11/23 03:01:47;;;;;;;25.65;24.05;;;;;;;;;;5017449;28;20026;-50
2023/11/23 03:04:12;;;;;;;23.55;22.25;;;;;;;;;;5018351;28;20030;-50
2023/11/23 03:06:38;;;;;;;25.67;24.27;;;;;;;;;;5018081;28;20103;-50
2023/11/23 03:09:03;;;;;;;25.50;23.83;;;;;;;;;;5020405;28;20049;-48
2023/11/23 03:11:28;;;;;;;23.63;22.33;;;;;;;;;;5020793;28;20120;-48
2023/11/23 03:13:55;;;;;;;22.75;21.45;;;;;;;;;;5020753;28;20048;-47
2023/11/23 03:16:21;;;;;;;24.52;23.23;;;;;;;;;;5019129;28;20120;-48
2023/11/23 03:18:46;;;;;;;24.58;23.27;;;;;;;;;;5019520;28;20519;-48
2023/11/23 03:21:12;;;;;;;25.67;24.17;;;;;;;;;;5019427;28;20034;-48
2023/11/23 03:23:38;;;;;;;25.92;24.42;;;;;;;;;;5017261;28;20125;-48
2023/11/23 03:26:04;;;;;;;25.08;23.50;;;;;;;;;;5019738;28;20063;-51
2023/11/23 03:28:30;;;;;;;25.10;23.77;;;;;;;;;;5018851;28;20049;-51
2023/11/23 03:30:55;;;;;;;26.10;24.60;;;;;;;;;;5017363;28;20034;-50
2023/11/23 03:33:21;;;;;;;24.48;23.17;;;;;;;;;;5023327;28;20037;-50
2023/11/23 03:35:46;;;;;;;26.13;24.63;;;;;;;;;;5019737;28;20021;-51
2023/11/23 03:38:12;;;;;;;25.77;24.38;;;;;;;;;;5022578;28;20052;-50
2023/11/23 03:40:37;;;;;;;25.25;23.88;;;;;;;;;;5020953;28;20021;-48
2023/11/23 03:43:03;;;;;;;27.17;25.67;;;;;;;;;;5019913;28;20036;-49
2023/11/23 03:45:29;;;;;;;26.10;24.60;;;;;;;;;;5017459;28;20146;-52
2023/11/23 03:47:54;;;;;;;25.88;24.20;;;;;;;;;;5019851;28;20048;-47
2023/11/23 03:50:20;;;;;;;26.35;24.85;;;;;;;;;;5021112;28;20030;-49
2023/11/23 03:52:45;;;;;;;29.10;27.42;;;;;;;;;;5022576;28;20030;-51
2023/11/23 03:55:11;;;;;;;26.88;25.38;;;;;;;;;;5023262;28;20115;-53
2023/11/23 03:57:38;;;;;;;26.35;24.80;;;;;;;;;;5023555;28;20037;-52
2023/11/23 04:00:05;;;;;;;26.92;25.25;;;;;;;;;;5021536;28;20494;-49
2023/11/23 04:02:30;;;;;;;27.58;26.00;;;;;;;;;;5023731;28;20535;-51
2023/11/23 04:04:56;;;;;;;25.80;24.30;;;;;;;;;;5022169;28;20423;-48
2023/11/23 04:07:21;;;;;;;25.85;24.38;;;;;;;;;;5017752;28;20034;-50
2023/11/23 04:09:46;;;;;;;25.23;23.73;;;;;;;;;;5018627;28;20034;-53
2023/11/23 04:12:12;;;;;;;26.05;24.55;;;;;;;;;;5023121;28;20040;-49
2023/11/23 04:14:37;;;;;;;24.27;22.98;;;;;;;;;;5023233;28;20037;-52
2023/11/23 04:17:02;;;;;;;26.63;25.02;;;;;;;;;;5022811;28;20044;-50
2023/11/23 04:19:27;;;;;;;25.73;24.27;;;;;;;;;;5021488;28;20044;-51
2023/11/23 04:21:53;;;;;;;25.83;24.33;;;;;;;;;;5022190;28;20037;-51
2023/11/23 04:24:18;;;;;;;26.83;25.35;;;;;;;;;;5023540;28;20033;-50
2023/11/23 04:26:44;;;;;;;27.45;25.85;;;;;;;;;;5023012;28;20063;-49
2023/11/23 04:29:09;;;;;;;26.13;24.63;;;;;;;;;;5023600;28;20057;-49
2023/11/23 04:31:35;;;;;;;26.05;24.45;;;;;;;;;;5022248;28;20039;-51
2023/11/23 04:34:01;;;;;;;25.70;24.30;;;;;;;;;;5023041;28;20467;-49
2023/11/23 04:36:30;;;;;;;24.15;22.83;;;;;;;;;;5021045;28;20034;-50
2023/11/23 04:38:55;;;;;;;24.30;23.00;;;;;;;;;;5023788;28;20791;-51
2023/11/23 04:41:20;;;;;;;24.80;23.50;;;;;;;;;;5023048;28;20041;-49
2023/11/23 04:43:46;;;;;;;23.55;22.25;;;;;;;;;;5021370;28;20467;-50
2023/11/23 04:46:11;;;;;;;25.33;23.92;;;;;;;;;;5026234;28;20041;-52
2023/11/23 04:48:37;;;;;;;26.90;25.40;;;;;;;;;;5022277;28;20032;-53
2023/11/23 04:51:02;;;;;;;25.40;24.00;;;;;;;;;;5024492;28;20509;-49
2023/11/23 04:53:27;;;;;;;25.17;23.67;;;;;;;;;;5022285;28;20033;-53
2023/11/23 04:55:53;;;;;;;24.63;23.23;;;;;;;;;;5021133;28;20460;-52
2023/11/23 04:58:18;;;;;;;23.65;22.35;;;;;;;;;;5021416;28;20037;-50
2023/11/23 05:00:44;;;;;;;24.23;22.92;;;;;;;;;;5025998;28;20133;-54
2023/11/23 05:03:09;;;;;;;24.52;22.95;;;;;;;;;;5022121;28;20454;-50
2023/11/23 05:05:34;;;;;;;25.52;24.13;;;;;;;;;;5020118;28;20448;-49
2023/11/23 05:08:00;;;;;;;23.77;22.50;;;;;;;;;;5009756;28;20419;-52
2023/11/23 05:10:25;;;;;;;24.58;23.05;;;;;;;;;;5020263;28;20495;-52
2023/11/23 05:12:51;;;;;;;24.98;23.58;;;;;;;;;;5020282;28;20041;-50
2023/11/23 05:15:17;;;;;;;24.20;22.80;;;;;;;;;;5021955;28;20375;-54
2023/11/23 05:17:42;;;;;;;25.23;23.65;;;;;;;;;;5019327;28;20037;-49
2023/11/23 05:20:08;;;;;;;24.92;23.42;;;;;;;;;;5021022;28;20458;-51
2023/11/23 05:22:34;;;;;;;23.17;21.90;;;;;;;;;;5017389;28;20057;-52
2023/11/23 05:24:59;;;;;;;23.65;22.35;;;;;;;;;;5022871;28;20034;-51
2023/11/23 05:27:25;;;;;;;24.65;23.15;;;;;;;;;;5019298;28;20036;-49
2023/11/23 05:29:50;;;;;;;24.35;22.58;;;;;;;;;;5025137;28;20963;-50
2023/11/23 05:32:16;;;;;;;23.00;21.75;;;;;;;;;;5018483;28;21322;-53
2023/11/23 05:34:41;;;;;;;23.23;21.92;;;;;;;;;;5021935;28;20049;-50
2023/11/23 05:37:06;;;;;;;24.50;23.08;;;;;;;;;;5021526;28;20045;-50
2023/11/23 05:39:32;;;;;;;22.58;21.27;;;;;;;;;;5022062;28;20037;-53
2023/11/23 05:41:58;;;;;;;22.05;20.75;;;;;;;;;;5021498;28;20025;-51
2023/11/23 05:44:23;;;;;;;23.50;22.13;;;;;;;;;;5021395;28;20044;-53
2023/11/23 05:46:49;;;;;;;22.52;21.23;;;;;;;;;;5020603;28;20066;-53
2023/11/23 05:49:17;;;;;;;21.65;20.45;;;;;;;;;;5021227;28;20044;-52
2023/11/23 05:51:42;;;;;;;22.63;21.23;;;;;;;;;;5019820;28;20092;-51
2023/11/23 05:54:08;;;;;;;21.65;20.35;;;;;;;;;;5023230;28;20479;-50
2023/11/23 05:56:33;;;;;;;22.50;21.20;;;;;;;;;;5020459;28;20036;-52
2023/11/23 05:58:59;;;;;;;22.73;21.42;;;;;;;;;;5022985;28;20042;-55
2023/11/23 06:01:24;;;;;;;24.00;22.60;;;;;;;;;;5019609;28;20607;-49
2023/11/23 06:03:49;;;;;;;21.88;20.63;;;;;;;;;;5021427;28;20037;-52
2023/11/23 06:06:22;;;;;;;22.55;21.30;;;;;;;;;;5018414;28;20037;-51
2023/11/23 06:08:48;;;;;;;22.65;21.38;;;;;;;;;;5020300;28;20094;-52
2023/11/23 06:11:14;;;;;;;21.83;20.58;;;;;;;;;;5021086;28;20033;-51
2023/11/23 06:13:42;;;;;;;24.00;22.60;;;;;;;;;;5021200;28;20037;-49
2023/11/23 06:16:08;;;;;;;22.60;21.30;;;;;;;;;;5020062;28;20625;-49
2023/11/23 06:18:34;;;;;;;24.35;22.75;;;;;;;;;;5020790;28;20033;-53
2023/11/23 06:20:59;;;;;;;23.27;21.77;;;;;;;;;;5020168;28;20084;-52
2023/11/23 06:23:25;;;;;;;22.85;21.65;;;;;;;;;;5021460;28;20372;-53
2023/11/23 06:25:50;;;;;;;22.65;21.35;;;;;;;;;;5025773;28;20382;-51
2023/11/23 06:28:15;;;;;;;23.55;22.05;;;;;;;;;;5019826;28;20041;-53
2023/11/23 06:30:42;;;;;;;22.90;21.70;;;;;;;;;;5018295;28;20041;-49
2023/11/23 06:33:08;;;;;;;23.58;22.17;;;;;;;;;;5020809;28;20411;-51
2023/11/23 06:35:33;;;;;;;22.10;20.90;;;;;;;;;;5025742;28;20070;-51
2023/11/23 06:37:59;;;;;;;23.73;22.42;;;;;;;;;;5020314;28;20041;-51
2023/11/23 06:40:24;;;;;;;23.25;21.95;;;;;;;;;;5022978;28;20037;-52
2023/11/23 06:42:49;;;;;;;21.92;20.73;;;;;;;;;;5024300;28;20396;-53
2023/11/23 06:45:16;;;;;;;23.85;22.55;;;;;;;;;;5022357;28;20683;-52
2023/11/23 06:47:42;;;;;;;23.75;22.45;;;;;;;;;;5023173;28;20033;-52
2023/11/23 06:50:08;;;;;;;23.05;21.75;;;;;;;;;;5022479;28;20038;-49
2023/11/23 06:52:33;;;;;;;22.10;20.90;;;;;;;;;;5022641;28;20463;-52
2023/11/23 06:54:59;;;;;;;23.13;21.83;;;;;;;;;;5017721;28;20033;-53
2023/11/23 06:57:27;;;;;;;23.25;21.95;;;;;;;;;;5027577;28;20434;-50
2023/11/23 06:59:53;;;;;;;24.00;22.45;;;;;;;;;;5019139;28;20113;-53
2023/11/23 07:02:18;;;;;;;22.67;21.33;;;;;;;;;;5006982;28;20466;-49
2023/11/23 07:04:44;;;;;;;22.67;21.40;;;;;;;;;;5018655;28;20034;-53
2023/11/23 07:07:09;;;;;;;23.30;21.90;;;;;;;;;;5020363;28;20363;-52
2023/11/23 07:09:35;;;;;;;23.33;22.02;;;;;;;;;;5023889;28;20038;-49
2023/11/23 07:12:01;;;;;;;23.42;22.13;;;;;;;;;;5007945;28;20102;-47
2023/11/23 07:14:27;;;;;;;25.60;24.10;;;;;;;;;;5023813;28;20036;-52
2023/11/23 07:16:52;;;;;;;22.35;21.15;;;;;;;;;;5022349;28;20432;-50
2023/11/23 07:19:21;;;;;;;23.25;21.95;;;;;;;;;;5020716;28;20416;-52
2023/11/23 07:21:49;;;;;;;22.90;21.55;;;;;;;;;;5019678;28;20052;-50
2023/11/23 07:24:15;;;;;;;23.45;22.10;;;;;;;;;;5020553;28;20037;-51
2023/11/23 07:26:40;;;;;;;26.92;22.58;;;;;;;;;;5024128;28;20040;-51
2023/11/23 07:29:06;;;;;;;22.73;21.48;;;;;;;;;;5022677;28;20061;-49
2023/11/23 07:31:31;;;;;;;23.90;22.50;;;;;;;;;;5025344;28;20037;-52
2023/11/23 07:33:59;;;;;;;23.25;21.95;;;;;;;;;;5024855;28;20096;-51
2023/11/23 07:36:26;;;;;;;23.00;21.60;;;;;;;;;;5023055;28;20301;-49
2023/11/23 07:38:51;;;;;;;25.15;23.73;;;;;;;;;;5023282;28;20096;-50
2023/11/23 07:41:18;;;;;;;22.65;21.45;;;;;;;;;;5021961;28;20033;-49
2023/11/23 07:43:43;;;;;;;22.98;21.58;;;;;;;;;;5022277;28;20025;-52
2023/11/23 07:46:09;;;;;;;24.05;22.75;;;;;;;;;;5022798;28;20041;-53
2023/11/23 07:48:34;;;;;;;24.90;23.38;;;;;;;;;;5024298;28;20033;-48
2023/11/23 07:51:00;;;;;;;23.67;22.33;;;;;;;;;;5023518;28;20366;-49
2023/11/23 07:53:30;;;;;;;24.33;22.92;;;;;;;;;;5023810;28;20029;-49
2023/11/23 07:55:56;;;;;;;23.98;22.65;;;;;;;;;;5024889;28;20506;-50
2023/11/23 07:58:21;;;;;;;25.20;23.70;;;;;;;;;;5023862;28;20057;-49
2023/11/23 08:00:47;;;;;;;26.40;24.95;;;;;;;;;;5024213;28;20532;-48
2023/11/23 08:03:13;;;;;;;24.00;22.70;;;;;;;;;;5021501;28;20033;-48
2023/11/23 08:05:38;;;;;;;25.75;24.15;;;;;;;;;;5023682;28;20041;-52
2023/11/23 08:08:04;;;;;;;27.50;25.95;;;;;;;;;;5023887;28;22052;-49
2023/11/23 08:10:29;;;;;;;27.42;25.90;;;;;;;;;;5022518;28;20032;-51
2023/11/23 08:12:55;;;;;;;26.65;25.25;;;;;;;;;;5019931;28;20774;-49
2023/11/23 08:15:21;;;;;;;27.13;25.65;;;;;;;;;;5022378;28;20041;-49
2023/11/23 08:17:46;;;;;;;30.05;27.30;;;;;;;;;;5022001;28;20037;-49
2023/11/23 08:20:13;;;;;;;28.48;26.83;;;;;;;;;;5023066;28;20041;-49
2023/11/23 08:22:39;;;;;;;29.48;27.88;;;;;;;;;;5024007;28;20693;-51
2023/11/23 08:25:05;;;;;;;29.90;28.10;;;;;;;;;;5021286;28;20098;-51
2023/11/23 08:27:31;;;;;;;29.02;27.33;;;;;;;;;;5023858;28;20029;-49
2023/11/23 08:29:56;;;;;;;32.58;30.73;;;;;;;;;;5023046;28;20034;-49
2023/11/23 08:32:22;;;;;;;31.35;29.67;;;;;;;;;;5027293;28;20033;-49
2023/11/23 08:34:51;;;;;;;32.95;30.95;;;;;;;;;;5019868;28;20092;-48
2023/11/23 08:37:16;;;;;;;33.38;31.42;;;;;;;;;;5023617;28;20064;-50
2023/11/23 08:39:41;;;;;;;33.63;31.63;;;;;;;;;;5027757;28;20163;-53
2023/11/23 08:42:07;;;;;;;32.30;30.50;;;;;;;;;;5026456;28;20116;-52
2023/11/23 08:44:33;;;;;;;30.42;28.83;;;;;;;;;;5024341;28;20041;-51
2023/11/23 08:47:00;;;;;;;31.27;29.63;;;;;;;;;;5025804;28;20067;-51
2023/11/23 08:49:25;;;;;;;32.25;30.52;;;;;;;;;;5025328;28;20036;-52
2023/11/23 08:51:51;;;;;;;34.30;32.50;;;;;;;;;;5023442;28;20399;-49
2023/11/23 08:54:17;;;;;;;31.85;30.15;;;;;;;;;;5024727;28;20044;-51
2023/11/23 08:56:43;;;;;;;31.30;29.58;;;;;;;;;;5023455;28;20052;-49
2023/11/23 08:59:10;;;;;;;32.38;30.58;;;;;;;;;;5023228;28;20654;-53
2023/11/23 09:01:35;;;;;;;31.35;29.65;;;;;;;;;;5021771;28;20456;-51
2023/11/23 09:04:01;;;;;;;31.60;29.90;;;;;;;;;;5021379;28;20053;-51
2023/11/23 09:06:27;;;;;;;29.23;27.67;;;;;;;;;;5021151;28;20365;-48
2023/11/23 09:08:52;;;;;;;31.58;29.88;;;;;;;;;;5024057;28;20405;-53
2023/11/23 09:11:18;;;;;;;31.42;29.73;;;;;;;;;;5021229;28;20409;-50
2023/11/23 09:13:43;;;;;;;33.20;31.38;;;;;;;;;;5027170;28;20134;-49
2023/11/23 09:16:11;;;;;;;31.27;29.67;;;;;;;;;;5021028;28;20044;-49
2023/11/23 09:18:37;;;;;;;30.90;29.17;;;;;;;;;;5020924;28;20048;-51
2023/11/23 09:21:03;;;;;;;28.45;26.85;;;;;;;;;;5018307;28;20033;-52
2023/11/23 09:23:28;;;;;;;28.02;26.52;;;;;;;;;;5021019;28;20336;-48
2023/11/23 09:25:54;;;;;;;31.48;29.52;;;;;;;;;;5021394;28;20040;-49
2023/11/23 09:28:20;;;;;;;35.95;33.95;;;;;;;;;;5017738;28;20034;-50
2023/11/23 09:30:45;;;;;;;36.58;34.17;;;;;;;;;;5020402;28;20052;-48
2023/11/23 09:33:11;;;;;;;34.22;32.40;;;;;;;;;;5025543;28;20036;-48
2023/11/23 09:35:42;;;;;;;36.25;34.00;;;;;;;;;;5022685;28;20060;-49
2023/11/23 09:38:07;;;;;;;32.15;30.45;;;;;;;;;;5019697;28;20371;-48
2023/11/23 09:40:33;;;;;;;35.25;33.35;;;;;;;;;;5019931;28;20030;-49
2023/11/23 09:42:59;;;;;;;38.13;36.13;;;;;;;;;;5019213;28;20033;-53
2023/11/23 09:45:25;;;;;;;34.20;32.33;;;;;;;;;;5018269;28;20058;-52
2023/11/23 09:47:52;;;;;;;34.90;32.95;;;;;;;;;;5023721;28;20075;-54
2023/11/23 09:50:18;;;;;;;35.47;33.55;;;;;;;;;;5020865;28;20037;-50
2023/11/23 09:52:47;;;;;;;35.95;34.03;;;;;;;;;;5020292;28;20021;-51
2023/11/23 09:55:16;;;;;;;33.55;31.73;;;;;;;;;;5020767;28;20029;-50
2023/11/23 09:57:48;;;;;;;34.03;32.10;;;;;;;;;;5021644;28;20503;-50
2023/11/23 10:00:14;;;;;;;30.75;29.15;;;;;;;;;;5021750;28;20347;-52
2023/11/23 10:02:42;;;;;;;33.97;32.08;;;;;;;;;;5022531;28;20033;-53
2023/11/23 10:05:09;;;;;;;31.45;29.75;;;;;;;;;;5021831;28;20088;-49
2023/11/23 10:07:35;;;;;;;34.50;32.63;;;;;;;;;;5019631;28;20038;-48
2023/11/23 10:10:03;;;;;;;34.95;33.05;;;;;;;;;;5021003;28;20033;-52
2023/11/23 10:12:29;;;;;;;32.20;30.35;;;;;;;;;;5020639;28;20029;-51
2023/11/23 10:14:54;;;;;;;31.95;30.15;;;;;;;;;;5022854;28;20033;-53
2023/11/23 10:17:20;;;;;;;32.10;30.15;;;;;;;;;;5022639;28;20766;-49
2023/11/23 10:19:46;;;;;;;31.10;29.35;;;;;;;;;;5023215;28;20041;-48
2023/11/23 10:22:11;;;;;;;29.88;28.27;;;;;;;;;;5016513;28;20032;-49
2023/11/23 10:24:49;;;;;;;32.22;30.48;;;;;;;;;;5020852;28;20382;-53
2023/11/23 10:27:20;;;;;;;32.80;31.00;;;;;;;;;;5020260;28;20037;-50
2023/11/23 10:29:46;;;;;;;30.10;28.48;;;;;;;;;;5021130;28;20030;-48
2023/11/23 10:32:15;;;;;;;29.90;28.30;;;;;;;;;;5019688;28;20099;-49
2023/11/23 10:34:42;;;;;;;33.25;31.38;;;;;;;;;;5021049;28;20389;-48
2023/11/23 10:37:13;;;;;;;31.67;29.88;;;;;;;;;;5019732;28;20057;-50
2023/11/23 10:39:38;;;;;;;30.92;29.13;;;;;;;;;;5020195;28;20464;-51
2023/11/23 10:42:05;;;;;;;28.67;27.02;;;;;;;;;;5018643;28;20033;-48
2023/11/23 10:44:32;;;;;;;30.25;28.42;;;;;;;;;;5022099;28;20029;-48
2023/11/23 10:47:03;;;;;;;28.40;26.90;;;;;;;;;;5018919;28;20044;-51
2023/11/23 10:49:33;;;;;;;28.45;26.95;;;;;;;;;;5019499;28;20463;-51
2023/11/23 10:51:59;;;;;;;32.00;30.02;;;;;;;;;;5019566;28;20056;-51
2023/11/23 10:54:25;;;;;;;28.65;26.95;;;;;;;;;;5021023;28;20037;-50
2023/11/23 10:56:51;;;;;;;29.60;27.95;;;;;;;;;;5024216;28;20030;-51
2023/11/23 10:59:20;;;;;;;31.20;29.52;;;;;;;;;;5019586;28;20459;-52
2023/11/23 11:01:48;;;;;;;29.02;27.38;;;;;;;;;;5023418;28;20550;-52
2023/11/23 11:04:14;;;;;;;27.48;25.98;;;;;;;;;;5023901;28;20034;-52
2023/11/23 11:06:41;;;;;;;27.90;26.40;;;;;;;;;;5027433;28;20462;-49
2023/11/23 11:09:16;;;;;;;28.17;26.38;;;;;;;;;;5023899;28;20042;-51
2023/11/23 11:11:43;;;;;;;28.25;26.67;;;;;;;;;;5021053;28;20038;-51
2023/11/23 11:14:13;;;;;;;27.08;25.58;;;;;;;;;;5023078;28;20042;-49
2023/11/23 11:16:39;;;;;;;28.13;26.63;;;;;;;;;;5021686;28;20604;-49
2023/11/23 11:19:06;;;;;;;29.38;27.67;;;;;;;;;;5022390;28;20033;-54
2023/11/23 11:21:48;;;;;;;26.35;24.95;;;;;;;;;;5023741;28;20068;-48
2023/11/23 11:24:18;;;;;;;28.75;27.20;;;;;;;;;;5022078;28;20042;-48
2023/11/23 11:26:46;;;;;;;25.80;24.10;;;;;;;;;;5020560;28;20407;-50
2023/11/23 11:29:12;;;;;;;27.42;25.88;;;;;;;;;;5023043;28;20443;-51
2023/11/23 11:31:40;;;;;;;26.65;25.25;;;;;;;;;;5024017;28;20132;-52
2023/11/23 11:34:14;;;;;;;28.15;26.38;;;;;;;;;;5022603;28;20048;-50
2023/11/23 11:36:44;;;;;;;27.35;25.85;;;;;;;;;;5020849;28;20041;-51
2023/11/23 11:39:13;;;;;;;26.33;24.90;;;;;;;;;;5021751;28;20037;-55
2023/11/23 11:41:38;;;;;;;29.63;27.83;;;;;;;;;;5020554;28;20060;-54
2023/11/23 11:44:05;;;;;;;28.42;26.73;;;;;;;;;;5021262;28;20025;-53
2023/11/23 11:46:33;;;;;;;27.60;26.00;;;;;;;;;;5022705;28;20472;-50
2023/11/23 11:48:58;;;;;;;27.10;25.60;;;;;;;;;;5023106;28;20045;-54
2023/11/23 11:51:28;;;;;;;24.55;23.25;;;;;;;;;;5021064;28;20046;-51
2023/11/23 11:53:54;;;;;;;26.70;25.10;;;;;;;;;;5029825;28;20095;-51
2023/11/23 11:56:20;;;;;;;27.33;25.73;;;;;;;;;;5024259;28;20386;-51
2023/11/23 11:58:47;;;;;;;26.95;25.40;;;;;;;;;;5023502;28;20382;-56
2023/11/23 12:01:13;;;;;;;25.50;24.10;;;;;;;;;;5019464;28;20040;-54
2023/11/23 12:03:38;;;;;;;28.40;26.80;;;;;;;;;;5021182;28;20120;-53
2023/11/23 12:06:04;;;;;;;27.23;25.73;;;;;;;;;;5021667;28;20049;-51
2023/11/23 12:08:37;;;;;;;26.25;24.65;;;;;;;;;;5020528;28;20045;-51
2023/11/23 12:11:03;;;;;;;29.17;27.35;;;;;;;;;;5023251;28;20678;-51
2023/11/23 12:13:29;;;;;;;26.77;25.27;;;;;;;;;;5020198;28;20129;-50
2023/11/23 12:15:55;;;;;;;27.67;26.17;;;;;;;;;;5025053;28;20044;-53
2023/11/23 12:18:35;;;;;;;27.80;26.20;;;;;;;;;;5024377;28;20037;-52
2023/11/23 12:21:02;;;;;;;28.27;26.48;;;;;;;;;;5028327;28;20045;-51
2023/11/23 12:23:28;;;;;;;26.60;25.15;;;;;;;;;;5021363;28;20026;-53
2023/11/23 12:25:54;;;;;;;25.85;24.42;;;;;;;;;;5025104;28;20037;-52
2023/11/23 12:28:21;;;;;;;26.23;24.63;;;;;;;;;;5021042;28;20111;-53
2023/11/23 12:30:47;;;;;;;28.20;26.60;;;;;;;;;;5017378;28;20053;-52
2023/11/23 12:33:13;;;;;;;26.95;25.38;;;;;;;;;;5020082;28;20356;-54
2023/11/23 12:35:39;;;;;;;26.80;25.30;;;;;;;;;;5019283;28;20102;-53
2023/11/23 12:38:06;;;;;;;27.60;26.10;;;;;;;;;;5021617;28;20038;-49
2023/11/23 12:40:32;;;;;;;28.60;26.88;;;;;;;;;;5021893;28;20026;-55
2023/11/23 12:42:58;;;;;;;27.33;25.73;;;;;;;;;;5029356;28;20383;-52
2023/11/23 12:45:24;;;;;;;30.58;28.60;;;;;;;;;;5021116;28;20084;-55
2023/11/23 12:47:50;;;;;;;27.70;26.10;;;;;;;;;;5018312;28;20029;-52
2023/11/23 12:50:16;;;;;;;27.25;25.75;;;;;;;;;;5018409;28;20059;-50
2023/11/23 12:52:42;;;;;;;27.73;26.20;;;;;;;;;;5017664;28;20095;-50
2023/11/23 12:55:08;;;;;;;27.10;25.55;;;;;;;;;;5018431;28;20132;-51
2023/11/23 12:57:34;;;;;;;29.17;27.25;;;;;;;;;;5018966;28;20060;-48
2023/11/23 13:00:01;;;;;;;27.45;25.85;;;;;;;;;;5019957;28;20030;-52
2023/11/23 13:02:26;;;;;;;30.17;28.40;;;;;;;;;;5016892;28;20026;-51
2023/11/23 13:04:52;;;;;;;29.05;27.35;;;;;;;;;;5020480;28;20045;-53
2023/11/23 13:07:18;;;;;;;26.77;25.27;;;;;;;;;;5018686;28;20052;-50
2023/11/23 13:09:43;;;;;;;26.65;25.17;;;;;;;;;;5020371;28;20029;-50
2023/11/23 13:12:09;;;;;;;28.23;26.63;;;;;;;;;;5016932;28;20034;-50
2023/11/23 13:14:35;;;;;;;28.30;26.70;;;;;;;;;;5018811;28;20038;-50
2023/11/23 13:17:00;;;;;;;28.98;27.17;;;;;;;;;;5007001;28;20060;-51
2023/11/23 13:19:26;;;;;;;27.05;25.55;;;;;;;;;;5020425;28;20080;-53
2023/11/23 13:21:53;;;;;;;29.30;27.60;;;;;;;;;;5019939;28;20490;-53
2023/11/23 13:24:20;;;;;;;27.77;26.17;;;;;;;;;;5023339;28;20056;-48
2023/11/23 13:26:46;;;;;;;30.80;28.90;;;;;;;;;;5019111;28;20045;-50
2023/11/23 13:29:12;;;;;;;29.25;27.55;;;;;;;;;;5023301;28;20504;-49
2023/11/23 13:31:38;;;;;;;28.38;26.73;;;;;;;;;;5018699;28;20057;-51
2023/11/23 13:34:06;;;;;;;27.17;25.63;;;;;;;;;;5022294;28;20076;-46
2023/11/23 13:36:34;;;;;;;30.45;28.60;;;;;;;;;;5019735;28;20104;-51
2023/11/23 13:39:01;;;;;;;27.83;26.30;;;;;;;;;;5020410;28;20038;-50
2023/11/23 13:41:27;;;;;;;29.63;27.88;;;;;;;;;;5019154;28;20547;-51
2023/11/23 13:43:54;;;;;;;25.67;24.27;;;;;;;;;;5019547;28;20025;-49
2023/11/23 13:46:20;;;;;;;28.95;27.35;;;;;;;;;;5020054;28;20051;-50
2023/11/23 13:48:48;;;;;;;28.60;26.65;;;;;;;;;;5026248;28;20105;-50
2023/11/23 13:51:17;;;;;;;28.80;27.20;;;;;;;;;;5017245;28;20100;-49
2023/11/23 13:53:43;;;;;;;29.08;27.38;;;;;;;;;;5021610;28;20034;-51
2023/11/23 13:56:10;;;;;;;27.95;26.25;;;;;;;;;;5022576;28;20033;-49
2023/11/23 13:58:36;;;;;;;30.75;29.05;;;;;;;;;;5018769;28;20098;-48
2023/11/23 14:01:01;;;;;;;30.35;28.65;;;;;;;;;;5021887;28;20041;-49
2023/11/23 14:03:28;;;;;;;26.50;24.90;;;;;;;;;;5017701;28;20091;-47
2023/11/23 14:05:55;;;;;;;29.42;27.77;;;;;;;;;;5017217;28;20517;-51
2023/11/23 14:08:21;;;;;;;29.13;27.23;;;;;;;;;;5014105;28;20375;-48
2023/11/23 14:10:47;;;;;;;29.00;27.30;;;;;;;;;;5022777;28;20313;-50